sensor_id;sensor_type;location;lat;lon;timestamp;temperature;humidity
9125;DHT22;4597;48.730;9.114;2023-03-22T00:00:42;9.70;99.90
9125;DHT22;4597;48.730;9.114;2023-03-22T00:03:08;9.70;99.90
9125;DHT22;4597;48.730;9.114;2023-03-22T00:05:34;9.60;99.90
9125;DHT22;4597;48.730;9.114;2023-03-22T00:07:59;9.60;99.90
9125;DHT22;4597;48.730;9.114;2023-03-22T00:10:26;9.60;99.90
9125;DHT22;4597;48.730;9.114;2023-03-22T00:12:55;9.50;99.90
9125;DHT22;4597;48.730;9.114;2023-03-22T00:15:21;9.50;99.90
9125;DHT22;4597;48.730;9.114;2023-03-22T00:17:47;9.50;99.90
9125;DHT22;4597;48.730;9.114;2023-03-22T00:20:15;9.50;99.90
9125;DHT22;4597;48.730;9.114;2023-03-22T00:22:41;9.50;99.90
9125;DHT22;4597;48.730;9.114;2023-03-22T00:25:08;9.50;99.90
9125;DHT22;4597;48.730;9.114;2023-03-22T00:27:33;9.40;99.90
9125;DHT22;4597;48.730;9.114;2023-03-22T00:29:59;9.40;99.90
9125;DHT22;4597;48.730;9.114;2023-03-22T00:32:25;9.30;99.90
9125;DHT22;4597;48.730;9.114;2023-03-22T00:34:50;9.30;99.90
9125;DHT22;4597;48.730;9.114;2023-03-22T00:37:17;9.30;99.90
9125;DHT22;4597;48.730;9.114;2023-03-22T00:39:43;9.30;99.90
9125;DHT22;4597;48.730;9.114;2023-03-22T00:42:09;9.20;99.90
9125;DHT22;4597;48.730;9.114;2023-03-22T00:44:35;9.20;99.90
9125;DHT22;4597;48.730;9.114;2023-03-22T00:47:01;9.10;99.90
9125;DHT22;4597;48.730;9.114;2023-03-22T00:49:27;9.20;99.90
9125;DHT22;4597;48.730;9.114;2023-03-22T00:51:52;9.10;99.90
9125;DHT22;4597;48.730;9.114;2023-03-22T00:54:19;9.10;99.90
9125;DHT22;4597;48.730;9.114;2023-03-22T00:56:44;9.00;99.90
9125;DHT22;4597;48.730;9.114;2023-03-22T00:59:11;8.80;99.90
9125;DHT22;4597;48.730;9.114;2023-03-22T01:01:37;8.80;99.90
9125;DHT22;4597;48.730;9.114;2023-03-22T01:04:03;8.80;99.90
9125;DHT22;4597;48.730;9.114;2023-03-22T01:06:30;8.80;99.90
9125;DHT22;4597;48.730;9.114;2023-03-22T01:08:55;8.80;99.90
9125;DHT22;4597;48.730;9.114;2023-03-22T01:11:22;8.70;99.90
9125;DHT22;4597;48.730;9.114;2023-03-22T01:13:48;8.60;99.90
9125;DHT22;4597;48.730;9.114;2023-03-22T01:16:13;8.60;99.90
9125;DHT22;4597;48.730;9.114;2023-03-22T01:18:39;8.70;99.90
9125;DHT22;4597;48.730;9.114;2023-03-22T01:21:05;8.70;99.90
9125;DHT22;4597;48.730;9.114;2023-03-22T01:23:30;8.70;99.90
9125;DHT22;4597;48.730;9.114;2023-03-22T01:25:56;8.80;99.90
9125;DHT22;4597;48.730;9.114;2023-03-22T01:28:22;8.70;99.90
9125;DHT22;4597;48.730;9.114;2023-03-22T01:30:47;8.70;99.90
9125;DHT22;4597;48.730;9.114;2023-03-22T01:33:14;8.70;99.90
9125;DHT22;4597;48.730;9.114;2023-03-22T01:35:39;8.60;99.90
9125;DHT22;4597;48.730;9.114;2023-03-22T01:38:05;8.50;99.90
9125;DHT22;4597;48.730;9.114;2023-03-22T01:40:32;8.50;99.90
9125;DHT22;4597;48.730;9.114;2023-03-22T01:42:57;8.50;99.90
9125;DHT22;4597;48.730;9.114;2023-03-22T01:47:55;8.50;99.90
9125;DHT22;4597;48.730;9.114;2023-03-22T01:50:22;8.40;99.90
9125;DHT22;4597;48.730;9.114;2023-03-22T01:52:50;8.40;99.90
9125;DHT22;4597;48.730;9.114;2023-03-22T01:55:16;8.30;99.90
9125;DHT22;4597;48.730;9.114;2023-03-22T01:57:43;8.30;99.90
9125;DHT22;4597;48.730;9.114;2023-03-22T02:00:11;8.30;99.90
9125;DHT22;4597;48.730;9.114;2023-03-22T02:02:41;8.20;99.90
9125;DHT22;4597;48.730;9.114;2023-03-22T02:05:07;8.20;99.90
9125;DHT22;4597;48.730;9.114;2023-03-22T02:07:34;8.20;99.90
9125;DHT22;4597;48.730;9.114;2023-03-22T02:09:59;8.10;99.90
9125;DHT22;4597;48.730;9.114;2023-03-22T02:15:22;8.10;99.90
9125;DHT22;4597;48.730;9.114;2023-03-22T02:18:09;8.10;99.90
9125;DHT22;4597;48.730;9.114;2023-03-22T02:26:22;8.10;99.90
9125;DHT22;4597;48.730;9.114;2023-03-22T02:47:46;7.90;99.90
9125;DHT22;4597;48.730;9.114;2023-03-22T02:50:30;7.90;99.90
9125;DHT22;4597;48.730;9.114;2023-03-22T02:53:20;7.90;99.90
9125;DHT22;4597;48.730;9.114;2023-03-22T02:56:18;7.90;99.90
9125;DHT22;4597;48.730;9.114;2023-03-22T02:58:52;7.90;99.90
9125;DHT22;4597;48.730;9.114;2023-03-22T03:01:24;7.90;99.90
9125;DHT22;4597;48.730;9.114;2023-03-22T03:03:56;7.80;99.90
9125;DHT22;4597;48.730;9.114;2023-03-22T03:06:23;7.80;99.90
9125;DHT22;4597;48.730;9.114;2023-03-22T03:08:54;7.80;99.90
9125;DHT22;4597;48.730;9.114;2023-03-22T03:11:22;7.80;99.90
9125;DHT22;4597;48.730;9.114;2023-03-22T03:13:49;7.90;99.90
9125;DHT22;4597;48.730;9.114;2023-03-22T03:16:19;7.80;99.90
9125;DHT22;4597;48.730;9.114;2023-03-22T03:18:58;7.80;99.90
9125;DHT22;4597;48.730;9.114;2023-03-22T03:25:11;7.80;99.90
9125;DHT22;4597;48.730;9.114;2023-03-22T03:27:06;7.70;99.90
9125;DHT22;4597;48.730;9.114;2023-03-22T03:29:49;7.70;99.90
9125;DHT22;4597;48.730;9.114;2023-03-22T03:32:31;7.70;99.90
9125;DHT22;4597;48.730;9.114;2023-03-22T03:37:55;7.60;99.90
9125;DHT22;4597;48.730;9.114;2023-03-22T03:40:32;7.60;99.90
9125;DHT22;4597;48.730;9.114;2023-03-22T03:43:01;7.60;99.90
9125;DHT22;4597;48.730;9.114;2023-03-22T03:45:28;7.60;99.90
9125;DHT22;4597;48.730;9.114;2023-03-22T03:47:56;7.50;99.90
9125;DHT22;4597;48.730;9.114;2023-03-22T03:50:24;7.50;99.90
9125;DHT22;4597;48.730;9.114;2023-03-22T03:52:51;7.40;99.90
9125;DHT22;4597;48.730;9.114;2023-03-22T03:55:18;7.30;99.90
9125;DHT22;4597;48.730;9.114;2023-03-22T03:57:44;7.30;99.90
9125;DHT22;4597;48.730;9.114;2023-03-22T04:00:10;7.30;99.90
9125;DHT22;4597;48.730;9.114;2023-03-22T04:02:38;7.20;99.90
9125;DHT22;4597;48.730;9.114;2023-03-22T04:05:04;7.20;99.90
9125;DHT22;4597;48.730;9.114;2023-03-22T04:07:31;7.20;99.90
9125;DHT22;4597;48.730;9.114;2023-03-22T04:09:57;7.20;99.90
9125;DHT22;4597;48.730;9.114;2023-03-22T04:12:22;7.20;99.90
9125;DHT22;4597;48.730;9.114;2023-03-22T04:14:48;7.20;99.90
9125;DHT22;4597;48.730;9.114;2023-03-22T04:17:13;7.10;99.90
9125;DHT22;4597;48.730;9.114;2023-03-22T04:19:39;7.10;99.90
9125;DHT22;4597;48.730;9.114;2023-03-22T04:22:05;7.00;99.90
9125;DHT22;4597;48.730;9.114;2023-03-22T04:24:31;7.10;99.90
9125;DHT22;4597;48.730;9.114;2023-03-22T04:26:56;7.10;99.90
9125;DHT22;4597;48.730;9.114;2023-03-22T04:29:22;7.00;99.90
9125;DHT22;4597;48.730;9.114;2023-03-22T04:31:48;7.00;99.90
9125;DHT22;4597;48.730;9.114;2023-03-22T04:34:14;7.00;99.90
9125;DHT22;4597;48.730;9.114;2023-03-22T04:36:40;6.90;99.90
9125;DHT22;4597;48.730;9.114;2023-03-22T04:39:08;6.90;99.90
9125;DHT22;4597;48.730;9.114;2023-03-22T04:41:35;7.00;99.90
9125;DHT22;4597;48.730;9.114;2023-03-22T04:44:02;6.90;99.90
9125;DHT22;4597;48.730;9.114;2023-03-22T04:46:32;7.00;99.90
9125;DHT22;4597;48.730;9.114;2023-03-22T04:48:59;6.90;99.90
9125;DHT22;4597;48.730;9.114;2023-03-22T04:51:25;6.90;99.90
9125;DHT22;4597;48.730;9.114;2023-03-22T04:53:52;6.90;99.90
9125;DHT22;4597;48.730;9.114;2023-03-22T04:56:18;6.80;99.90
9125;DHT22;4597;48.730;9.114;2023-03-22T04:58:44;6.90;99.90
9125;DHT22;4597;48.730;9.114;2023-03-22T05:01:11;6.80;99.90
9125;DHT22;4597;48.730;9.114;2023-03-22T05:03:37;6.80;99.90
9125;DHT22;4597;48.730;9.114;2023-03-22T05:06:05;6.80;99.90
9125;DHT22;4597;48.730;9.114;2023-03-22T05:08:31;6.80;99.90
9125;DHT22;4597;48.730;9.114;2023-03-22T05:11:03;6.80;99.90
9125;DHT22;4597;48.730;9.114;2023-03-22T05:13:28;6.80;99.90
9125;DHT22;4597;48.730;9.114;2023-03-22T05:15:54;6.80;99.90
9125;DHT22;4597;48.730;9.114;2023-03-22T05:18:21;6.80;99.90
9125;DHT22;4597;48.730;9.114;2023-03-22T05:20:48;6.80;99.90
9125;DHT22;4597;48.730;9.114;2023-03-22T05:23:15;6.70;99.90
9125;DHT22;4597;48.730;9.114;2023-03-22T05:25:44;6.70;99.90
9125;DHT22;4597;48.730;9.114;2023-03-22T05:28:11;6.70;99.90
9125;DHT22;4597;48.730;9.114;2023-03-22T05:30:41;6.60;99.90
9125;DHT22;4597;48.730;9.114;2023-03-22T05:33:08;6.60;99.90
9125;DHT22;4597;48.730;9.114;2023-03-22T05:35:36;6.60;99.90
9125;DHT22;4597;48.730;9.114;2023-03-22T05:38:02;6.60;99.90
9125;DHT22;4597;48.730;9.114;2023-03-22T05:40:28;6.70;99.90
9125;DHT22;4597;48.730;9.114;2023-03-22T05:42:54;6.70;99.90
9125;DHT22;4597;48.730;9.114;2023-03-22T05:45:20;6.60;99.90
9125;DHT22;4597;48.730;9.114;2023-03-22T05:47:47;6.60;99.90
9125;DHT22;4597;48.730;9.114;2023-03-22T05:50:16;6.60;99.90
9125;DHT22;4597;48.730;9.114;2023-03-22T05:52:42;6.70;99.90
9125;DHT22;4597;48.730;9.114;2023-03-22T05:55:09;6.70;99.90
9125;DHT22;4597;48.730;9.114;2023-03-22T05:57:37;6.70;99.90
9125;DHT22;4597;48.730;9.114;2023-03-22T06:00:07;6.80;99.90
9125;DHT22;4597;48.730;9.114;2023-03-22T06:02:44;6.80;99.90
9125;DHT22;4597;48.730;9.114;2023-03-22T06:05:10;6.80;99.90
9125;DHT22;4597;48.730;9.114;2023-03-22T06:07:37;6.90;99.90
9125;DHT22;4597;48.730;9.114;2023-03-22T06:10:04;6.90;99.90
9125;DHT22;4597;48.730;9.114;2023-03-22T06:12:30;6.90;99.90
9125;DHT22;4597;48.730;9.114;2023-03-22T06:14:56;7.00;99.90
9125;DHT22;4597;48.730;9.114;2023-03-22T06:17:21;7.00;99.90
9125;DHT22;4597;48.730;9.114;2023-03-22T06:19:48;7.10;99.90
9125;DHT22;4597;48.730;9.114;2023-03-22T06:22:13;7.10;99.90
9125;DHT22;4597;48.730;9.114;2023-03-22T06:24:40;7.20;99.90
9125;DHT22;4597;48.730;9.114;2023-03-22T06:27:06;7.20;99.90
9125;DHT22;4597;48.730;9.114;2023-03-22T06:29:32;7.20;99.90
9125;DHT22;4597;48.730;9.114;2023-03-22T06:31:58;7.30;99.90
9125;DHT22;4597;48.730;9.114;2023-03-22T06:34:24;7.20;99.90
9125;DHT22;4597;48.730;9.114;2023-03-22T06:36:50;7.30;99.90
9125;DHT22;4597;48.730;9.114;2023-03-22T06:39:17;7.30;99.90
9125;DHT22;4597;48.730;9.114;2023-03-22T06:41:42;7.40;99.90
9125;DHT22;4597;48.730;9.114;2023-03-22T06:44:08;7.50;99.90
9125;DHT22;4597;48.730;9.114;2023-03-22T06:46:33;7.50;99.90
9125;DHT22;4597;48.730;9.114;2023-03-22T06:48:59;7.60;99.90
9125;DHT22;4597;48.730;9.114;2023-03-22T06:51:24;7.60;99.90
9125;DHT22;4597;48.730;9.114;2023-03-22T06:53:50;7.60;99.90
9125;DHT22;4597;48.730;9.114;2023-03-22T06:56:15;7.60;99.90
9125;DHT22;4597;48.730;9.114;2023-03-22T06:58:41;7.70;99.90
9125;DHT22;4597;48.730;9.114;2023-03-22T07:01:06;7.70;99.90
9125;DHT22;4597;48.730;9.114;2023-03-22T07:03:32;7.70;99.90
9125;DHT22;4597;48.730;9.114;2023-03-22T07:06:06;7.70;99.90
9125;DHT22;4597;48.730;9.114;2023-03-22T07:08:32;7.80;99.90
9125;DHT22;4597;48.730;9.114;2023-03-22T07:10:58;7.80;99.90
9125;DHT22;4597;48.730;9.114;2023-03-22T07:13:23;7.90;99.90
9125;DHT22;4597;48.730;9.114;2023-03-22T07:15:57;7.90;99.90
9125;DHT22;4597;48.730;9.114;2023-03-22T07:18:24;7.90;99.90
9125;DHT22;4597;48.730;9.114;2023-03-22T07:20:50;8.00;99.90
9125;DHT22;4597;48.730;9.114;2023-03-22T07:23:16;8.00;99.90
9125;DHT22;4597;48.730;9.114;2023-03-22T07:25:43;8.10;99.90
9125;DHT22;4597;48.730;9.114;2023-03-22T07:28:09;8.10;99.90
9125;DHT22;4597;48.730;9.114;2023-03-22T07:30:36;8.20;99.90
9125;DHT22;4597;48.730;9.114;2023-03-22T07:33:06;8.30;99.90
9125;DHT22;4597;48.730;9.114;2023-03-22T07:35:32;8.40;99.90
9125;DHT22;4597;48.730;9.114;2023-03-22T07:37:58;8.40;99.90
9125;DHT22;4597;48.730;9.114;2023-03-22T07:40:25;8.50;99.90
9125;DHT22;4597;48.730;9.114;2023-03-22T07:42:51;8.60;99.90
9125;DHT22;4597;48.730;9.114;2023-03-22T07:45:18;8.60;99.90
9125;DHT22;4597;48.730;9.114;2023-03-22T07:47:43;8.70;99.90
9125;DHT22;4597;48.730;9.114;2023-03-22T07:50:10;8.80;99.90
9125;DHT22;4597;48.730;9.114;2023-03-22T07:52:39;8.90;99.90
9125;DHT22;4597;48.730;9.114;2023-03-22T07:55:06;8.90;99.90
9125;DHT22;4597;48.730;9.114;2023-03-22T07:57:31;9.10;99.90
9125;DHT22;4597;48.730;9.114;2023-03-22T07:59:57;9.20;99.90
9125;DHT22;4597;48.730;9.114;2023-03-22T08:02:23;9.30;99.90
9125;DHT22;4597;48.730;9.114;2023-03-22T08:04:48;9.40;99.90
9125;DHT22;4597;48.730;9.114;2023-03-22T08:07:15;9.50;99.90
9125;DHT22;4597;48.730;9.114;2023-03-22T08:09:43;9.50;99.90
9125;DHT22;4597;48.730;9.114;2023-03-22T08:12:09;9.70;99.90
9125;DHT22;4597;48.730;9.114;2023-03-22T08:14:35;9.80;99.90
9125;DHT22;4597;48.730;9.114;2023-03-22T08:17:02;10.00;99.90
9125;DHT22;4597;48.730;9.114;2023-03-22T08:19:28;10.10;99.90
9125;DHT22;4597;48.730;9.114;2023-03-22T08:21:54;10.20;99.90
9125;DHT22;4597;48.730;9.114;2023-03-22T08:24:19;10.40;99.90
9125;DHT22;4597;48.730;9.114;2023-03-22T08:26:45;10.60;99.90
9125;DHT22;4597;48.730;9.114;2023-03-22T08:29:14;10.80;99.90
9125;DHT22;4597;48.730;9.114;2023-03-22T08:31:39;10.90;99.90
9125;DHT22;4597;48.730;9.114;2023-03-22T08:34:05;11.00;99.90
9125;DHT22;4597;48.730;9.114;2023-03-22T08:36:31;11.30;99.90
9125;DHT22;4597;48.730;9.114;2023-03-22T08:38:57;11.40;99.90
9125;DHT22;4597;48.730;9.114;2023-03-22T08:41:22;11.40;99.90
9125;DHT22;4597;48.730;9.114;2023-03-22T08:43:48;11.50;99.90
9125;DHT22;4597;48.730;9.114;2023-03-22T08:46:13;11.60;99.90
9125;DHT22;4597;48.730;9.114;2023-03-22T08:48:39;11.70;99.90
9125;DHT22;4597;48.730;9.114;2023-03-22T08:51:06;11.70;99.90
9125;DHT22;4597;48.730;9.114;2023-03-22T08:53:32;11.90;99.90
9125;DHT22;4597;48.730;9.114;2023-03-22T08:55:57;11.90;99.90
9125;DHT22;4597;48.730;9.114;2023-03-22T08:58:26;12.00;99.90
9125;DHT22;4597;48.730;9.114;2023-03-22T09:00:51;12.00;99.90
9125;DHT22;4597;48.730;9.114;2023-03-22T09:03:17;12.10;99.90
9125;DHT22;4597;48.730;9.114;2023-03-22T09:05:42;12.20;99.90
9125;DHT22;4597;48.730;9.114;2023-03-22T09:08:08;12.30;99.90
9125;DHT22;4597;48.730;9.114;2023-03-22T09:10:33;12.50;99.90
9125;DHT22;4597;48.730;9.114;2023-03-22T09:12:59;12.60;99.90
9125;DHT22;4597;48.730;9.114;2023-03-22T09:15:25;12.70;99.90
9125;DHT22;4597;48.730;9.114;2023-03-22T09:17:50;12.70;99.90
9125;DHT22;4597;48.730;9.114;2023-03-22T09:20:16;12.80;99.90
9125;DHT22;4597;48.730;9.114;2023-03-22T09:22:42;12.90;99.90
9125;DHT22;4597;48.730;9.114;2023-03-22T09:25:08;12.80;99.90
9125;DHT22;4597;48.730;9.114;2023-03-22T09:27:34;12.80;99.90
9125;DHT22;4597;48.730;9.114;2023-03-22T09:30:00;12.90;99.90
9125;DHT22;4597;48.730;9.114;2023-03-22T09:32:26;12.90;99.90
9125;DHT22;4597;48.730;9.114;2023-03-22T09:34:51;12.90;99.90
9125;DHT22;4597;48.730;9.114;2023-03-22T09:37:18;13.10;99.90
9125;DHT22;4597;48.730;9.114;2023-03-22T09:39:44;13.20;99.90
9125;DHT22;4597;48.730;9.114;2023-03-22T09:42:30;13.40;99.90
9125;DHT22;4597;48.730;9.114;2023-03-22T09:44:59;13.50;99.90
9125;DHT22;4597;48.730;9.114;2023-03-22T09:47:41;13.60;99.90
9125;DHT22;4597;48.730;9.114;2023-03-22T09:50:14;13.60;99.90
9125;DHT22;4597;48.730;9.114;2023-03-22T09:52:43;13.60;99.90
9125;DHT22;4597;48.730;9.114;2023-03-22T09:55:33;13.70;99.90
9125;DHT22;4597;48.730;9.114;2023-03-22T10:00:38;13.80;99.90
9125;DHT22;4597;48.730;9.114;2023-03-22T10:03:18;13.80;99.90
9125;DHT22;4597;48.730;9.114;2023-03-22T10:08:51;14.00;99.90
9125;DHT22;4597;48.730;9.114;2023-03-22T10:11:28;14.20;99.90
9125;DHT22;4597;48.730;9.114;2023-03-22T10:14:20;14.40;99.90
9125;DHT22;4597;48.730;9.114;2023-03-22T10:16:51;14.50;99.90
9125;DHT22;4597;48.730;9.114;2023-03-22T10:19:26;14.70;99.90
9125;DHT22;4597;48.730;9.114;2023-03-22T10:21:53;14.70;99.90
9125;DHT22;4597;48.730;9.114;2023-03-22T10:24:28;14.80;99.90
9125;DHT22;4597;48.730;9.114;2023-03-22T10:26:54;14.80;99.90
9125;DHT22;4597;48.730;9.114;2023-03-22T10:29:35;14.90;99.90
9125;DHT22;4597;48.730;9.114;2023-03-22T10:32:13;14.90;99.90
9125;DHT22;4597;48.730;9.114;2023-03-22T10:34:39;14.80;99.90
9125;DHT22;4597;48.730;9.114;2023-03-22T10:37:05;14.90;99.80
9125;DHT22;4597;48.730;9.114;2023-03-22T10:39:58;14.90;99.70
9125;DHT22;4597;48.730;9.114;2023-03-22T10:42:27;15.00;99.50
9125;DHT22;4597;48.730;9.114;2023-03-22T10:45:00;14.90;98.60
9125;DHT22;4597;48.730;9.114;2023-03-22T10:47:52;15.00;96.70
9125;DHT22;4597;48.730;9.114;2023-03-22T10:52:58;15.20;95.10
9125;DHT22;4597;48.730;9.114;2023-03-22T10:55:27;15.30;95.10
9125;DHT22;4597;48.730;9.114;2023-03-22T10:58:17;15.30;93.40
9125;DHT22;4597;48.730;9.114;2023-03-22T11:00:48;15.40;91.80
9125;DHT22;4597;48.730;9.114;2023-03-22T11:06:02;15.60;91.00
9125;DHT22;4597;48.730;9.114;2023-03-22T11:08:37;15.70;90.50
9125;DHT22;4597;48.730;9.114;2023-03-22T11:11:06;15.70;89.00
9125;DHT22;4597;48.730;9.114;2023-03-22T11:13:32;15.80;90.10
9125;DHT22;4597;48.730;9.114;2023-03-22T11:16:01;15.90;87.80
9125;DHT22;4597;48.730;9.114;2023-03-22T11:18:31;16.00;84.10
9125;DHT22;4597;48.730;9.114;2023-03-22T11:21:01;16.10;84.10
9125;DHT22;4597;48.730;9.114;2023-03-22T11:23:32;16.30;82.30
9125;DHT22;4597;48.730;9.114;2023-03-22T11:26:04;16.50;79.20
9125;DHT22;4597;48.730;9.114;2023-03-22T11:28:44;16.50;75.80
9125;DHT22;4597;48.730;9.114;2023-03-22T11:31:13;16.50;76.40
9125;DHT22;4597;48.730;9.114;2023-03-22T11:33:57;16.60;74.90
9125;DHT22;4597;48.730;9.114;2023-03-22T11:36:23;16.60;73.40
9125;DHT22;4597;48.730;9.114;2023-03-22T11:39:01;16.70;72.40
9125;DHT22;4597;48.730;9.114;2023-03-22T11:41:34;16.70;73.90
9125;DHT22;4597;48.730;9.114;2023-03-22T11:44:06;16.80;70.30
9125;DHT22;4597;48.730;9.114;2023-03-22T11:46:34;16.80;68.40
9125;DHT22;4597;48.730;9.114;2023-03-22T11:49:05;16.90;68.00
9125;DHT22;4597;48.730;9.114;2023-03-22T11:51:34;16.90;65.50
9125;DHT22;4597;48.730;9.114;2023-03-22T11:56:31;17.10;61.20
9125;DHT22;4597;48.730;9.114;2023-03-22T11:59:04;17.20;61.90
9125;DHT22;4597;48.730;9.114;2023-03-22T12:01:42;17.30;58.70
9125;DHT22;4597;48.730;9.114;2023-03-22T12:04:14;17.30;59.60
9125;DHT22;4597;48.730;9.114;2023-03-22T12:06:41;17.30;55.80
9125;DHT22;4597;48.730;9.114;2023-03-22T12:12:26;17.40;52.40
9125;DHT22;4597;48.730;9.114;2023-03-22T12:15:16;17.40;51.00
9125;DHT22;4597;48.730;9.114;2023-03-22T12:17:51;17.30;52.10
9125;DHT22;4597;48.730;9.114;2023-03-22T12:20:38;17.20;52.00
9125;DHT22;4597;48.730;9.114;2023-03-22T12:23:17;17.20;52.20
9125;DHT22;4597;48.730;9.114;2023-03-22T12:25:54;17.30;52.20
9125;DHT22;4597;48.730;9.114;2023-03-22T12:28:27;17.30;52.70
9125;DHT22;4597;48.730;9.114;2023-03-22T12:30:55;17.20;51.20
9125;DHT22;4597;48.730;9.114;2023-03-22T12:33:34;17.20;52.20
9125;DHT22;4597;48.730;9.114;2023-03-22T12:36:03;17.30;51.00
9125;DHT22;4597;48.730;9.114;2023-03-22T12:41:38;17.40;51.70
9125;DHT22;4597;48.730;9.114;2023-03-22T12:44:16;17.50;51.20
9125;DHT22;4597;48.730;9.114;2023-03-22T12:46:50;17.60;51.90
9125;DHT22;4597;48.730;9.114;2023-03-22T12:49:26;17.70;50.90
9125;DHT22;4597;48.730;9.114;2023-03-22T12:52:02;17.80;49.50
9125;DHT22;4597;48.730;9.114;2023-03-22T12:54:30;17.90;49.10
9125;DHT22;4597;48.730;9.114;2023-03-22T12:56:56;18.00;49.70
9125;DHT22;4597;48.730;9.114;2023-03-22T12:59:25;18.00;50.90
9125;DHT22;4597;48.730;9.114;2023-03-22T13:01:57;18.10;49.80
9125;DHT22;4597;48.730;9.114;2023-03-22T13:09:45;17.90;50.80
9125;DHT22;4597;48.730;9.114;2023-03-22T13:19:52;18.10;52.50
9125;DHT22;4597;48.730;9.114;2023-03-22T13:22:21;18.20;52.40
9125;DHT22;4597;48.730;9.114;2023-03-22T13:27:52;18.30;52.40
9125;DHT22;4597;48.730;9.114;2023-03-22T13:32:49;18.50;49.70
9125;DHT22;4597;48.730;9.114;2023-03-22T13:35:26;18.60;49.20
9125;DHT22;4597;48.730;9.114;2023-03-22T13:38:01;18.80;49.10
9125;DHT22;4597;48.730;9.114;2023-03-22T13:40:33;18.90;49.50
9125;DHT22;4597;48.730;9.114;2023-03-22T13:43:24;19.00;49.70
9125;DHT22;4597;48.730;9.114;2023-03-22T13:51:27;19.40;46.70
9125;DHT22;4597;48.730;9.114;2023-03-22T13:54:48;19.50;46.50
9125;DHT22;4597;48.730;9.114;2023-03-22T13:57:19;19.50;45.60
9125;DHT22;4597;48.730;9.114;2023-03-22T14:02:43;19.90;45.70
9125;DHT22;4597;48.730;9.114;2023-03-22T14:05:19;20.10;45.80
9125;DHT22;4597;48.730;9.114;2023-03-22T14:07:54;20.20;45.10
9125;DHT22;4597;48.730;9.114;2023-03-22T14:15:44;20.40;43.00
9125;DHT22;4597;48.730;9.114;2023-03-22T14:18:23;20.40;43.60
9125;DHT22;4597;48.730;9.114;2023-03-22T14:20:56;20.40;44.10
9125;DHT22;4597;48.730;9.114;2023-03-22T14:26:28;20.60;41.00
9125;DHT22;4597;48.730;9.114;2023-03-22T14:29:07;20.70;40.20
9125;DHT22;4597;48.730;9.114;2023-03-22T14:31:33;20.60;40.20
9125;DHT22;4597;48.730;9.114;2023-03-22T14:34:05;20.60;40.10
9125;DHT22;4597;48.730;9.114;2023-03-22T14:36:41;20.50;39.90
9125;DHT22;4597;48.730;9.114;2023-03-22T14:39:30;20.50;40.80
9125;DHT22;4597;48.730;9.114;2023-03-22T14:44:46;20.80;40.00
9125;DHT22;4597;48.730;9.114;2023-03-22T14:47:16;21.00;40.50
9125;DHT22;4597;48.730;9.114;2023-03-22T14:49:47;21.10;40.10
9125;DHT22;4597;48.730;9.114;2023-03-22T14:52:26;21.10;39.80
9125;DHT22;4597;48.730;9.114;2023-03-22T14:54:54;21.10;39.80
9125;DHT22;4597;48.730;9.114;2023-03-22T14:57:27;21.10;40.10
9125;DHT22;4597;48.730;9.114;2023-03-22T14:59:55;21.00;38.60
9125;DHT22;4597;48.730;9.114;2023-03-22T15:04:51;21.00;38.90
9125;DHT22;4597;48.730;9.114;2023-03-22T15:07:18;21.30;38.70
9125;DHT22;4597;48.730;9.114;2023-03-22T15:09:44;21.30;39.30
9125;DHT22;4597;48.730;9.114;2023-03-22T15:12:10;21.00;37.80
9125;DHT22;4597;48.730;9.114;2023-03-22T15:14:36;20.80;38.20
9125;DHT22;4597;48.730;9.114;2023-03-22T15:17:04;20.60;38.80
9125;DHT22;4597;48.730;9.114;2023-03-22T15:19:37;20.40;39.80
9125;DHT22;4597;48.730;9.114;2023-03-22T15:22:09;20.20;40.00
9125;DHT22;4597;48.730;9.114;2023-03-22T15:24:38;19.80;38.80
9125;DHT22;4597;48.730;9.114;2023-03-22T15:27:10;19.50;39.60
9125;DHT22;4597;48.730;9.114;2023-03-22T15:29:40;19.30;39.90
9125;DHT22;4597;48.730;9.114;2023-03-22T15:32:13;19.10;41.30
9125;DHT22;4597;48.730;9.114;2023-03-22T15:34:39;19.30;42.10
9125;DHT22;4597;48.730;9.114;2023-03-22T15:37:05;19.20;42.70
9125;DHT22;4597;48.730;9.114;2023-03-22T15:39:35;19.10;42.00
9125;DHT22;4597;48.730;9.114;2023-03-22T15:42:30;19.10;42.80
9125;DHT22;4597;48.730;9.114;2023-03-22T15:44:59;19.00;42.70
9125;DHT22;4597;48.730;9.114;2023-03-22T15:47:28;19.00;43.00
9125;DHT22;4597;48.730;9.114;2023-03-22T15:49:56;19.00;43.50
9125;DHT22;4597;48.730;9.114;2023-03-22T15:52:27;19.00;43.60
9125;DHT22;4597;48.730;9.114;2023-03-22T15:55:03;19.00;43.80
9125;DHT22;4597;48.730;9.114;2023-03-22T15:57:49;19.10;44.00
9125;DHT22;4597;48.730;9.114;2023-03-22T16:00:29;19.10;44.10
9125;DHT22;4597;48.730;9.114;2023-03-22T16:02:59;19.10;44.70
9125;DHT22;4597;48.730;9.114;2023-03-22T16:05:26;19.10;44.60
9125;DHT22;4597;48.730;9.114;2023-03-22T16:07:52;19.10;45.00
9125;DHT22;4597;48.730;9.114;2023-03-22T16:10:20;19.10;45.20
9125;DHT22;4597;48.730;9.114;2023-03-22T16:12:47;19.10;45.10
9125;DHT22;4597;48.730;9.114;2023-03-22T16:15:24;19.10;45.10
9125;DHT22;4597;48.730;9.114;2023-03-22T16:17:50;19.10;45.20
9125;DHT22;4597;48.730;9.114;2023-03-22T16:20:16;19.10;44.70
9125;DHT22;4597;48.730;9.114;2023-03-22T16:22:44;19.00;46.00
9125;DHT22;4597;48.730;9.114;2023-03-22T16:25:21;18.90;45.80
9125;DHT22;4597;48.730;9.114;2023-03-22T16:27:48;18.90;46.40
9125;DHT22;4597;48.730;9.114;2023-03-22T16:30:14;18.90;46.70
9125;DHT22;4597;48.730;9.114;2023-03-22T16:32:41;18.80;46.90
9125;DHT22;4597;48.730;9.114;2023-03-22T16:35:21;18.80;47.10
9125;DHT22;4597;48.730;9.114;2023-03-22T16:37:47;18.70;48.60
9125;DHT22;4597;48.730;9.114;2023-03-22T16:40:14;18.70;48.10
9125;DHT22;4597;48.730;9.114;2023-03-22T16:42:41;18.60;48.40
9125;DHT22;4597;48.730;9.114;2023-03-22T16:45:12;18.60;48.50
9125;DHT22;4597;48.730;9.114;2023-03-22T16:47:38;18.60;48.70
9125;DHT22;4597;48.730;9.114;2023-03-22T16:50:03;18.50;48.60
9125;DHT22;4597;48.730;9.114;2023-03-22T16:52:29;18.50;49.80
9125;DHT22;4597;48.730;9.114;2023-03-22T16:54:55;18.50;49.60
9125;DHT22;4597;48.730;9.114;2023-03-22T16:57:23;18.50;49.70
9125;DHT22;4597;48.730;9.114;2023-03-22T16:59:50;18.50;50.10
9125;DHT22;4597;48.730;9.114;2023-03-22T17:04:44;18.30;50.00
9125;DHT22;4597;48.730;9.114;2023-03-22T17:07:13;18.30;50.20
9125;DHT22;4597;48.730;9.114;2023-03-22T17:09:39;18.30;50.30
9125;DHT22;4597;48.730;9.114;2023-03-22T17:12:04;18.20;51.60
9125;DHT22;4597;48.730;9.114;2023-03-22T17:14:30;18.20;51.50
9125;DHT22;4597;48.730;9.114;2023-03-22T17:16:55;18.20;51.80
9125;DHT22;4597;48.730;9.114;2023-03-22T17:19:21;18.20;52.40
9125;DHT22;4597;48.730;9.114;2023-03-22T17:21:46;18.00;54.00
9125;DHT22;4597;48.730;9.114;2023-03-22T17:24:12;17.80;54.70
9125;DHT22;4597;48.730;9.114;2023-03-22T17:26:37;17.60;55.70
9125;DHT22;4597;48.730;9.114;2023-03-22T17:29:03;17.50;56.10
9125;DHT22;4597;48.730;9.114;2023-03-22T17:31:28;17.20;56.80
9125;DHT22;4597;48.730;9.114;2023-03-22T17:33:54;17.10;57.40
9125;DHT22;4597;48.730;9.114;2023-03-22T17:36:22;17.00;57.20
9125;DHT22;4597;48.730;9.114;2023-03-22T17:38:47;16.90;58.00
9125;DHT22;4597;48.730;9.114;2023-03-22T17:41:13;16.80;58.80
9125;DHT22;4597;48.730;9.114;2023-03-22T17:43:39;16.70;58.70
9125;DHT22;4597;48.730;9.114;2023-03-22T17:46:05;16.60;59.40
9125;DHT22;4597;48.730;9.114;2023-03-22T17:48:31;16.60;60.80
9125;DHT22;4597;48.730;9.114;2023-03-22T17:50:58;16.50;61.60
9125;DHT22;4597;48.730;9.114;2023-03-22T17:53:23;16.40;62.70
9125;DHT22;4597;48.730;9.114;2023-03-22T17:55:49;16.30;63.90
9125;DHT22;4597;48.730;9.114;2023-03-22T17:58:14;16.30;63.80
9125;DHT22;4597;48.730;9.114;2023-03-22T18:00:40;16.20;64.80